Metar Cercanos

 

LEPA - Palma De Mallorc, Spain
Distance from station: ONO 38km
Actualización: Sun, 03-Mar-2024 12:00am CET
Lluvia débil, Muy nuboso
Lluvia débil, Muy nuboso
 Viento del SSO
Viento: SSO 30 km/h
Temperatura: 15°C
Rocío: 13°C
Humedad: 88%
Barómetro: 1002 hPa
Resumen: Lluvia débil
Clouds: Muy nuboso
Visibility: 10 km
Cloud details: Few Clouds 610 m
Muy nuboso 1829 m
2024/03/02 23:00 LEPA 022300Z 21016KT 9999 -RA FEW020 BKN060 15/13 Q1002 NOSIG
LEMH - Mahon/Menorca Is, Spain
Distance from station: ENE 105km
Actualización: Sun, 03-Mar-2024 12:00am CET
Muy nuboso
Muy nuboso
 Viento del SSO
Viento: SSO 28 km/h
Temperatura: 14°C
Rocío: 11°C
Humedad: 82%
Barómetro: 1004 hPa
Clouds: Muy nuboso
Visibility: 10 km
Cloud details: Few Clouds 518 m
Muy nuboso 610 m
Muy nuboso 701 m
2024/03/02 23:00 LEMH 022300Z AUTO 21015KT 180V250 9999 FEW017/// BKN020/// BKN023/// 14/11 Q1004
 
LEIB - Ibiza/Es Codola, Spain
Distance from station: OSO 165km
Actualización: Sun, 03-Mar-2024 12:00am CET
Parcialmente nuboso
Parcialmente nuboso
 Viento del SSO
Viento: SSO 31 km/h
Temperatura: 15°C
Rocío: 12°C
Humedad: 82%
Barómetro: 1001 hPa
Clouds: Parcialmente nuboso
Visibility: 10 km
Cloud details: Parcialmente nuboso 427 m
Parcialmente nuboso 1463 m
2024/03/02 23:00 LEIB 022300Z 21017KT 9999 SCT014 SCT048TCU 15/12 Q1001 RESHRA NOSIG
LEBL - Barcelona Airpor, Spain
Distance from station: NNO 225km
Actualización: Sun, 03-Mar-2024 12:00am CET
Muy nuboso
Muy nuboso
 Viento del S
Viento: S 28 km/h
Temperatura: 14°C
Rocío: 10°C
Humedad: 77%
Barómetro: 997 hPa
Clouds: Muy nuboso
Visibility: 10 km
Cloud details: Few Clouds 914 m
Muy nuboso 1890 m
2024/03/02 23:00 LEBL 022300Z 19015KT 9999 FEW030 BKN062 14/10 Q0997 NOSIG
 
LEVC - Valencia (civ/Mi, Spain
Distance from station: NO 188km
Actualización: Sun, 03-Mar-2024 12:00am CET
Few Clouds
Few Clouds
 Viento del OSO
Viento: OSO 31 km/h
Temperatura: 10°C
Sensación frio: 7°C
Rocío: 2°C
Humedad: 58%
Barómetro: 1001 hPa
Clouds: Few Clouds
Visibility: 10 km
Cloud details: Few Clouds 1372 m
2024/03/02 23:00 LEVC 022300Z 25017KT 9999 FEW045 10/02 Q1001 NOSIG
LEGE - Gerona/Costa Bra, Spain
Distance from station: N 276km
Actualización: Sun, 03-Mar-2024 12:00am CET
Few Clouds
Few Clouds
 Viento del SO
Viento: SO 9 km/h
Temperatura: 12°C
Rocío: 6°C
Humedad: 67%
Barómetro: 998 hPa
Clouds: Few Clouds
Visibility: 10 km
Cloud details: Few Clouds 2743 m
2024/03/02 23:00 LEGE 022300Z 22005KT 9999 FEW090 12/06 Q0998
 
LEAL - Alicante/El Alte, Spain
Distance from station: OSO 344km
Actualización: Sun, 03-Mar-2024 12:16am CET
Lluvia débil, Cubierto
Lluvia débil, Cubierto
 Viento del ONO
Viento: ONO 31 km/h
Temperatura: 9°C
Sensación frio: 5°C
Rocío: 5°C
Humedad: 76%
Barómetro: 1004 hPa
Resumen: Lluvia débil
Clouds: Cubierto
Visibility: 10 km
Cloud details: Cubierto 1646 m
2024/03/02 23:16 LEAL 022316Z 29017KT 260V320 9999 -RA OVC054 09/05 Q1004 RERA TEMPO 5000 RA
LEAM - Almeria Airport, Spain
Distance from station: SSO 56km
Actualización: Sun, 03-Mar-2024 12:00am CET
Muy nuboso
Muy nuboso
 Viento del OSO
Viento: OSO 54 km/h, Racha: 80 km/h
Temperatura: 15°C
Rocío: 11°C
Humedad: 77%
Barómetro: 1006 hPa
Clouds: Muy nuboso
Visibility: 10 km
Cloud details: Muy nuboso 640 m
2024/03/02 23:00 LEAM 022300Z AUTO 24029G43KT 200V260 9999 BKN021 15/11 Q1006
 
LEZG - Zaragoza (mil/Ci, Spain
Distance from station: NO 431km
Actualización: Sun, 03-Mar-2024 12:00am CET
Lluvia débil, Muy nuboso
Lluvia débil, Muy nuboso
 Viento del ONO
Viento: ONO 35 km/h
Temperatura: 6°C
Sensación frio: 1°C
Rocío: 4°C
Humedad: 87%
Barómetro: 1001 hPa
Resumen: Lluvia débil
Clouds: Muy nuboso
Visibility: 10 km
Cloud details: Muy nuboso 762 m
Muy nuboso 1524 m
2024/03/02 23:00 LEZG 022300Z 29019KT 9999 -RA BKN025 BKN050 06/04 Q1001
LEMD - Madrid/Barajas, Spain
Distance from station: ONO 234km
Actualización: Sun, 03-Mar-2024 12:00am CET
Parcialmente nuboso
Parcialmente nuboso
 Viento del O
Viento: O 30 km/h
Temperatura: 5°C
Sensación frio: 0°C
Rocío: 0°C
Humedad: 70%
Barómetro: 1004 hPa
Clouds: Parcialmente nuboso
Visibility: 10 km
Cloud details: Parcialmente nuboso 1829 m
2024/03/02 23:00 LEMD 022300Z 28016KT 9999 SCT060 05/M00 Q1004 NOSIG
 
LEGR - Granada Airport, Spain
Distance from station: OSO 62km
Actualización: Sun, 03-Mar-2024 12:00am CET
Cubierto
Cubierto
 Viento del O
Viento: O 30 km/h, Racha: 48 km/h
Temperatura: 10°C
Sensación frio: 7°C
Rocío: 9°C
Humedad: 94%
Barómetro: 1009 hPa
Clouds: Cubierto
Visibility: 10 km
Cloud details: Parcialmente nuboso 457 m
Muy nuboso 610 m
Cubierto 823 m
2024/03/02 23:00 LEGR 022300Z AUTO 27016G26KT 240V300 9999 SCT015 BKN020 OVC027 10/09 Q1009
LEMG - Malaga (civ/Mil), Spain
Distance from station: OSO 227km
Actualización: Sun, 03-Mar-2024 12:00am CET
Lluvia débil, Drizzle, Muy nuboso
Lluvia débil, Drizzle, Muy nuboso
 Viento del varies
Viento: varies 4 km/h
Temperatura: 14°C
Rocío: 9°C
Humedad: 72%
Barómetro: 1010 hPa
Resumen: Lluvia débil, Drizzle
Clouds: Muy nuboso
Visibility: 10 km
Cloud details: Few Clouds 1067 m
Muy nuboso 1524 m
2024/03/02 23:00 LEMG 022300Z VRB02KT 9999 -RADZ FEW035 BKN050 14/09 Q1010 NOSIG
 
LEZL - Sevilla (civ/Mil, Spain
Distance from station: S 318km
Actualización: Sun, 03-Mar-2024 12:00am CET
Few Clouds
Few Clouds
 Viento del ONO
Viento: ONO 19 km/h
Temperatura: 12°C
Rocío: 8°C
Humedad: 77%
Barómetro: 1012 hPa
Clouds: Few Clouds
Visibility: 10 km
Cloud details: Few Clouds 610 m
2024/03/02 23:00 LEZL 022300Z 30010KT 9999 FEW020 12/08 Q1012 NOSIG
LEVT - Vitoria, Spain
Distance from station: NO 226km
Actualización: Sun, 03-Mar-2024 12:00am CET
Muy nuboso
Muy nuboso
 Viento del varies
Viento: varies 2 km/h
Temperatura: 3°C
Rocío: 1°C
Humedad: 87%
Barómetro: 1003 hPa
Clouds: Muy nuboso
Visibility: 8 km
Cloud details: Few Clouds 427 m
Muy nuboso 762 m
2024/03/02 23:00 LEVT 022300Z VRB01KT 8000 FEW014 BKN025 03/01 Q1003
 
LEBB - Bilbao/Sondica, Spain
Distance from station: NNO 235km
Actualización: Sun, 03-Mar-2024 12:00am CET
Lluvia débil, Muy nuboso
Lluvia débil, Muy nuboso
 Viento del O
Viento: O 7 km/h
Temperatura: 7°C
Sensación frio: 6°C
Rocío: 5°C
Humedad: 87%
Barómetro: 1004 hPa
Resumen: Lluvia débil
Clouds: Muy nuboso
Visibility: 10 km
Cloud details: Parcialmente nuboso 823 m
Muy nuboso 1067 m
Muy nuboso 1433 m
2024/03/02 23:00 LEBB 022300Z AUTO 28004KT 220V360 9999 -RA SCT027 BKN035 BKN047 07/05 Q1004
LESO - San Sebastian/Fu, Spain
Distance from station: N 231km
Actualización: Sun, 03-Mar-2024 12:00am CET
Lluvia débil, Muy nuboso
Lluvia débil, Muy nuboso
 Viento del OSO
Viento: OSO 19 km/h
Temperatura: 7°C
Sensación frio: 4°C
Rocío: 5°C
Humedad: 87%
Barómetro: 1002 hPa
Resumen: Lluvia débil
Clouds: Muy nuboso
Visibility: 10 km
Cloud details: Muy nuboso 792 m
Muy nuboso 1097 m
Muy nuboso 1524 m
2024/03/02 23:00 LESO 022300Z AUTO 24010KT 210V280 9999 -RA BKN026 BKN036 BKN050 07/05 Q1002
 
LEVD - Valladolid(Mil/C, Spain
Distance from station: ONO 239km
Actualización: Sun, 03-Mar-2024 12:00am CET
Despejado
Despejado
 Viento del ONO
Viento: ONO 13 km/h
Temperatura: 0°C
Sensación frio: -4°C
Rocío: -1°C
Humedad: 93%
Barómetro: 1005 hPa
Resumen: Despejado
Visibility: greater than 10 km
2024/03/02 23:00 LEVD 022300Z AUTO 29007KT CAVOK 00/M01 Q1005
LESA - Salamanca (civ/M, Spain
Distance from station: ONO 349km
Actualización: Sun, 03-Mar-2024 12:00am CET
Cubierto
Cubierto
 Viento del O
Viento: O 20 km/h
Temperatura: 2°C
Sensación frio: -3°C
Rocío: 0°C
Humedad: 87%
Barómetro: 1007 hPa
Clouds: Cubierto
Visibility: 10 km
Cloud details: Cubierto 305 m
2024/03/02 23:00 LESA 022300Z AUTO 28011KT 9999 OVC010 02/00 Q1007
 
LEXJ - Santander/Paraya, Spain
Distance from station: NNO 247km
Actualización: Sun, 03-Mar-2024 12:00am CET
Parcialmente nuboso
Parcialmente nuboso
 Viento del SO
Viento: SO 15 km/h
Temperatura: 7°C
Sensación frio: 4°C
Rocío: 5°C
Humedad: 87%
Barómetro: 1005 hPa
Clouds: Parcialmente nuboso
Visibility: 10 km
Cloud details: Few Clouds 884 m
Parcialmente nuboso 1981 m
2024/03/02 23:00 LEXJ 022300Z AUTO 23008KT 200V280 9999 FEW029 SCT065 07/05 Q1005
LEAS - Asturias/Aviles, Spain
Distance from station: NO 214km
Actualización: Sun, 03-Mar-2024 12:00am CET
Lluvia débil, Showers, Parcialmente nuboso
Lluvia débil, Showers, Parcialmente nuboso
 Viento del OSO
Viento: OSO 17 km/h
Temperatura: 5°C
Sensación frio: 2°C
Rocío: 3°C
Humedad: 87%
Barómetro: 1007 hPa
Resumen: Lluvia débil, Showers
Clouds: Parcialmente nuboso
Visibility: 10 km
Cloud details: Few Clouds 853 m
Few Clouds 1036 m
Parcialmente nuboso 2103 m
2024/03/02 23:00 LEAS 022300Z 25009KT 210V290 9999 -SHRA FEW028 FEW034TCU SCT069 05/03 Q1007 NOSIG
 
LECO - La Coruna/Alvedr, Spain
Distance from station: ONO 222km
Actualización: Sun, 03-Mar-2024 12:00am CET
Few Clouds
Few Clouds
 Viento del O
Viento: O 20 km/h
Temperatura: 7°C
Sensación frio: 4°C
Rocío: 3°C
Humedad: 76%
Barómetro: 1009 hPa
Clouds: Few Clouds
Visibility: 10 km
Cloud details: Few Clouds 1036 m
2024/03/02 23:00 LECO 022300Z 26011KT 230V290 9999 FEW034 07/03 Q1009 NOSIG
LEVX - Vigo/Peinador, Spain
Distance from station: O 214km
Actualización: Sun, 03-Mar-2024 12:21am CET
Lluvia, Muy nuboso
Lluvia, Muy nuboso
 Viento del OSO
Viento: OSO 6 km/h
Temperatura: 5°C
Rocío: 3°C
Humedad: 87%
Barómetro: 1011 hPa
Resumen: Lluvia
Clouds: Muy nuboso
Visibility: 10 km
Cloud details: Few Clouds 701 m
Parcialmente nuboso 1250 m
Muy nuboso 1463 m
2024/03/02 23:21 LEVX 022321Z 25003KT 200V280 9999 RA FEW023 SCT041 BKN048 05/03 Q1011 TEMPO NSW